Time;durP1;ratioP1;P1;durP2;ratioP2;P2;SDS_P1;SDS_P2;PMS_P1;PMS_P2;Temp;Humidity;BMP_temperature;BMP_pressure;BME280_temperature;BME280_humidity;BME280_pressure;Samples;Min_cycle;Max_cycle;Signal;HPM_P1;HPM_P2
2022/04/12 00:00:20;;;;;;;6.20;3.60;;;7.40;99.90;;;;;;5098459;28;20461;-72
2022/04/12 00:02:47;;;;;;;5.27;3.07;;;7.30;99.90;;;;;;5098294;28;20463;-72
2022/04/12 00:05:13;;;;;;;6.33;3.57;;;7.30;99.90;;;;;;5098231;28;20453;-72
2022/04/12 00:07:40;;;;;;;4.90;3.33;;;7.30;99.90;;;;;;5097835;28;20568;-72
2022/04/12 00:10:08;;;;;;;5.33;3.40;;;7.30;99.90;;;;;;5097547;28;20453;-72
2022/04/12 00:12:37;;;;;;;62.53;33.43;;;7.30;99.90;;;;;;5097714;28;20464;-73
2022/04/12 00:15:08;;;;;;;12.00;6.23;;;7.30;99.90;;;;;;5098400;28;20460;-73
2022/04/12 00:20:20;;;;;;;4.73;3.70;;;7.20;99.90;;;;;;5097804;28;20784;-72
2022/04/12 00:22:47;;;;;;;4.20;3.00;;;7.20;99.90;;;;;;5097556;28;20468;-72
2022/04/12 00:25:14;;;;;;;4.60;3.60;;;7.20;99.90;;;;;;5098132;28;20594;-72
2022/04/12 00:27:42;;;;;;;5.70;3.80;;;7.20;99.90;;;;;;5097782;28;20789;-72
2022/04/12 00:30:12;;;;;;;6.10;3.27;;;7.20;99.90;;;;;;5097452;28;20544;-72
2022/04/12 00:32:39;;;;;;;7.50;3.80;;;7.20;99.90;;;;;;5097501;28;20492;-72
2022/04/12 00:35:07;;;;;;;7.10;3.43;;;7.20;99.90;;;;;;5097362;28;20544;-73
2022/04/12 00:37:36;;;;;;;4.90;3.67;;;7.20;99.90;;;;;;5097272;28;20518;-72
2022/04/12 00:40:04;;;;;;;3.97;3.20;;;7.20;99.90;;;;;;5097286;28;20616;-72
2022/04/12 00:42:31;;;;;;;6.63;3.00;;;7.10;99.90;;;;;;5097335;28;20465;-72
2022/04/12 00:45:00;;;;;;;5.93;3.57;;;7.10;99.90;;;;;;5097518;28;20548;-72
2022/04/12 00:47:26;;;;;;;6.00;3.27;;;7.20;99.90;;;;;;5097268;28;20461;-72
2022/04/12 00:49:53;;;;;;;4.90;3.80;;;7.10;99.90;;;;;;5097014;28;20858;-72
2022/04/12 00:52:20;;;;;;;5.47;3.70;;;7.10;99.90;;;;;;5096819;28;20778;-72
2022/04/12 00:54:47;;;;;;;6.93;3.50;;;7.10;99.90;;;;;;5096846;28;20542;-72
2022/04/12 00:57:14;;;;;;;6.80;4.37;;;7.10;99.90;;;;;;5097012;28;20472;-72
2022/04/12 00:59:44;;;;;;;6.03;3.40;;;7.10;99.90;;;;;;5097288;28;20565;-72
2022/04/12 01:02:13;;;;;;;5.60;3.87;;;7.10;99.90;;;;;;5096842;28;20458;-72
2022/04/12 01:04:40;;;;;;;7.77;3.80;;;7.10;99.90;;;;;;5096711;28;20453;-72
2022/04/12 01:07:07;;;;;;;4.83;3.30;;;7.10;99.90;;;;;;5096783;28;20457;-72
2022/04/12 01:09:33;;;;;;;8.20;3.60;;;7.10;99.90;;;;;;5096698;28;20515;-72
2022/04/12 01:12:08;;;;;;;4.80;3.40;;;7.10;99.90;;;;;;5096367;28;20454;-72
2022/04/12 01:14:35;;;;;;;7.43;3.67;;;7.10;99.90;;;;;;5096463;28;20448;-72
2022/04/12 01:17:04;;;;;;;6.57;3.93;;;7.10;99.90;;;;;;5096178;28;20918;-72
2022/04/12 01:19:33;;;;;;;6.50;3.73;;;7.10;99.90;;;;;;5096617;28;20481;-72
2022/04/12 01:22:05;;;;;;;6.93;3.40;;;7.00;99.90;;;;;;5096058;28;20910;-72
2022/04/12 01:24:34;;;;;;;8.53;3.47;;;7.00;99.90;;;;;;5096620;28;20540;-72
2022/04/12 01:27:01;;;;;;;5.70;3.80;;;7.00;99.90;;;;;;5096696;28;20839;-72
2022/04/12 01:29:33;;;;;;;5.27;3.30;;;7.00;99.90;;;;;;5096786;28;20454;-72
2022/04/12 01:32:00;;;;;;;6.03;3.23;;;7.00;99.90;;;;;;5116551;28;20436;-72
2022/04/12 01:34:27;;;;;;;6.30;3.67;;;7.00;99.90;;;;;;5114785;28;20482;-72
2022/04/12 01:36:54;;;;;;;5.20;3.50;;;7.00;99.90;;;;;;5116364;28;20459;-72
2022/04/12 01:39:21;;;;;;;5.90;3.10;;;7.00;99.90;;;;;;5115921;28;20484;-72
2022/04/12 01:41:49;;;;;;;8.57;4.57;;;7.00;99.90;;;;;;5115582;28;20553;-73
2022/04/12 01:44:16;;;;;;;4.33;3.50;;;7.00;99.90;;;;;;5114318;28;20456;-72
2022/04/12 01:46:42;;;;;;;6.20;3.80;;;6.90;99.90;;;;;;5113994;28;20765;-72
2022/04/12 01:49:09;;;;;;;11.60;3.63;;;6.90;99.90;;;;;;5113941;28;20929;-72
2022/04/12 01:51:36;;;;;;;4.30;3.77;;;6.90;99.90;;;;;;5113806;28;20532;-72
2022/04/12 01:54:02;;;;;;;3.60;3.10;;;6.90;99.90;;;;;;5113670;28;20909;-72
2022/04/12 01:56:31;;;;;;;4.97;3.77;;;6.90;99.90;;;;;;5113854;28;21017;-72
2022/04/12 01:58:59;;;;;;;6.33;3.93;;;6.90;99.90;;;;;;5114887;28;20477;-72
2022/04/12 02:01:27;;;;;;;6.43;3.93;;;6.90;99.90;;;;;;5113679;28;20512;-72
2022/04/12 02:03:54;;;;;;;5.53;3.43;;;6.90;99.90;;;;;;5113929;28;20464;-72
2022/04/12 02:06:20;;;;;;;9.20;4.10;;;6.80;99.90;;;;;;5113924;28;20547;-72
2022/04/12 02:08:47;;;;;;;6.60;4.03;;;6.80;99.90;;;;;;5113780;28;20847;-72
2022/04/12 02:11:14;;;;;;;5.93;3.93;;;6.80;99.90;;;;;;5113543;28;20448;-72
2022/04/12 02:13:41;;;;;;;5.17;3.93;;;6.80;99.90;;;;;;5113960;28;20460;-72
2022/04/12 02:16:09;;;;;;;8.17;4.30;;;6.80;99.90;;;;;;5113021;28;20468;-72
2022/04/12 02:18:35;;;;;;;8.70;4.10;;;6.80;99.90;;;;;;5113554;28;20803;-72
2022/04/12 02:21:02;;;;;;;6.00;3.60;;;6.80;99.90;;;;;;5113552;28;20524;-72
2022/04/12 02:23:29;;;;;;;5.90;4.00;;;6.70;99.90;;;;;;5113799;28;20467;-72
2022/04/12 02:25:55;;;;;;;6.30;3.70;;;6.70;99.90;;;;;;5113607;28;20456;-72
2022/04/12 02:28:22;;;;;;;5.40;4.07;;;6.70;99.90;;;;;;5113665;28;20528;-72
2022/04/12 02:30:49;;;;;;;5.93;3.77;;;6.70;99.90;;;;;;5115056;28;20969;-72
2022/04/12 02:33:17;;;;;;;4.70;4.10;;;6.70;99.90;;;;;;5115188;28;20875;-72
2022/04/12 02:35:43;;;;;;;6.13;3.80;;;6.70;99.90;;;;;;5116235;28;20937;-72
2022/04/12 02:38:10;;;;;;;5.40;3.93;;;6.60;99.90;;;;;;5115324;28;20457;-72
2022/04/12 02:40:37;;;;;;;7.43;4.07;;;6.60;99.90;;;;;;5115830;28;20525;-72
2022/04/12 02:43:03;;;;;;;7.83;4.47;;;6.60;99.90;;;;;;5115211;28;20530;-72
2022/04/12 02:45:33;;;;;;;6.33;4.20;;;6.60;99.90;;;;;;5115228;28;20457;-72
2022/04/12 02:48:00;;;;;;;4.97;3.67;;;6.60;99.90;;;;;;5115463;28;20467;-72
2022/04/12 02:50:28;;;;;;;4.30;3.90;;;6.50;99.90;;;;;;5115384;28;20448;-72
2022/04/12 02:52:55;;;;;;;4.40;3.60;;;6.50;99.90;;;;;;5115197;28;20456;-72
2022/04/12 02:55:22;;;;;;;5.20;4.47;;;6.50;99.90;;;;;;5115471;28;20506;-72
2022/04/12 02:57:48;;;;;;;4.10;3.70;;;6.50;99.90;;;;;;5115221;28;20467;-71
2022/04/12 03:00:16;;;;;;;6.20;4.27;;;6.50;99.90;;;;;;5115212;28;20537;-71
2022/04/12 03:02:43;;;;;;;6.13;3.97;;;6.40;99.90;;;;;;5115137;28;20798;-71
2022/04/12 03:05:10;;;;;;;8.97;5.07;;;6.40;99.90;;;;;;5115090;28;20837;-72
2022/04/12 03:07:38;;;;;;;7.87;5.20;;;6.40;99.90;;;;;;5114845;28;20967;-73
2022/04/12 03:10:06;;;;;;;5.67;4.37;;;6.40;99.90;;;;;;5114960;28;20539;-73
2022/04/12 03:12:33;;;;;;;7.57;4.73;;;6.40;99.90;;;;;;5115164;28;20467;-73
2022/04/12 03:15:01;;;;;;;5.57;4.80;;;6.40;99.90;;;;;;5115257;28;20928;-73
2022/04/12 03:17:28;;;;;;;7.03;4.00;;;6.30;99.90;;;;;;5115228;28;20536;-73
2022/04/12 03:19:55;;;;;;;9.13;5.30;;;6.30;99.90;;;;;;5115838;28;20472;-73
2022/04/12 03:22:22;;;;;;;5.93;4.07;;;6.30;99.90;;;;;;5116861;28;20551;-73
2022/04/12 03:24:50;;;;;;;7.90;5.10;;;6.20;99.90;;;;;;5116986;28;20836;-73
2022/04/12 03:27:17;;;;;;;5.93;4.30;;;6.20;99.90;;;;;;5116569;28;20535;-73
2022/04/12 03:29:44;;;;;;;9.70;4.60;;;6.20;99.90;;;;;;5118864;28;20455;-73
2022/04/12 03:32:11;;;;;;;8.40;4.73;;;6.30;99.90;;;;;;5118780;28;20460;-72
2022/04/12 03:34:39;;;;;;;7.17;4.30;;;6.20;99.90;;;;;;5118639;28;21014;-72
2022/04/12 03:37:06;;;;;;;8.73;4.87;;;6.20;99.90;;;;;;5121050;28;20463;-72
2022/04/12 03:39:32;;;;;;;6.03;4.43;;;6.20;99.90;;;;;;5119394;28;20480;-72
2022/04/12 03:42:01;;;;;;;10.23;4.97;;;6.20;99.90;;;;;;5118817;28;20456;-72
2022/04/12 03:44:27;;;;;;;27.60;17.20;;;6.20;99.90;;;;;;5118420;28;20909;-73
2022/04/12 03:46:54;;;;;;;23.63;14.50;;;6.10;99.90;;;;;;5118573;28;20794;-72
2022/04/12 03:49:21;;;;;;;30.20;19.70;;;6.20;99.90;;;;;;5118829;28;20818;-72
2022/04/12 03:51:47;;;;;;;21.90;14.67;;;6.20;99.90;;;;;;5118904;28;20448;-72
2022/04/12 03:54:14;;;;;;;13.83;9.90;;;6.20;99.90;;;;;;5118898;28;20452;-71
2022/04/12 03:56:42;;;;;;;7.40;4.97;;;6.30;99.90;;;;;;5118630;28;20440;-71
2022/04/12 03:59:11;;;;;;;6.03;4.83;;;6.30;99.90;;;;;;5118391;28;20456;-73
2022/04/12 04:01:37;;;;;;;7.37;5.47;;;6.30;99.90;;;;;;5118568;28;20463;-73
2022/04/12 04:04:04;;;;;;;8.47;5.40;;;6.20;99.90;;;;;;5118545;28;20467;-73
2022/04/12 04:06:31;;;;;;;7.40;5.30;;;6.20;99.90;;;;;;5118228;28;20451;-71
2022/04/12 04:08:58;;;;;;;6.53;5.17;;;6.10;99.90;;;;;;5118177;28;20456;-71
2022/04/12 04:11:24;;;;;;;5.80;4.83;;;6.10;99.90;;;;;;5118588;28;20448;-71
2022/04/12 04:13:51;;;;;;;9.13;5.80;;;6.10;99.90;;;;;;5118242;28;20456;-72
2022/04/12 04:16:19;;;;;;;10.63;5.80;;;6.10;99.90;;;;;;5118072;28;20475;-73
2022/04/12 04:18:46;;;;;;;8.00;6.00;;;6.10;99.90;;;;;;5118122;28;20455;-71
2022/04/12 04:21:13;;;;;;;10.10;5.40;;;6.10;99.90;;;;;;5117412;28;20476;-71
2022/04/12 04:23:40;;;;;;;6.90;5.90;;;6.00;99.90;;;;;;5118254;28;20479;-71
2022/04/12 04:26:06;;;;;;;9.00;5.60;;;6.00;99.90;;;;;;5118044;28;20449;-73
2022/04/12 04:28:34;;;;;;;10.10;5.50;;;6.00;99.90;;;;;;5118112;28;20467;-73
2022/04/12 04:31:01;;;;;;;7.73;6.10;;;6.00;99.90;;;;;;5118758;28;20517;-73
2022/04/12 04:33:29;;;;;;;8.60;5.60;;;6.00;99.90;;;;;;5118133;28;20836;-72
2022/04/12 04:35:55;;;;;;;10.63;5.73;;;6.00;99.90;;;;;;5118388;28;20484;-73
2022/04/12 04:38:22;;;;;;;6.53;5.93;;;6.00;99.90;;;;;;5117491;28;20794;-73
2022/04/12 04:40:49;;;;;;;9.20;5.60;;;6.00;99.90;;;;;;5117834;28;20809;-72
2022/04/12 04:43:16;;;;;;;7.37;5.90;;;6.00;99.90;;;;;;5117153;28;20456;-72
2022/04/12 04:45:43;;;;;;;11.70;7.13;;;6.00;99.90;;;;;;5117284;28;20929;-72
2022/04/12 04:48:11;;;;;;;7.63;5.60;;;6.00;99.90;;;;;;5117386;28;20452;-72
2022/04/12 04:50:39;;;;;;;9.90;6.33;;;6.00;99.90;;;;;;5117439;28;20459;-72
2022/04/12 04:53:09;;;;;;;10.77;6.70;;;6.10;99.90;;;;;;5117439;28;20920;-72
2022/04/12 04:55:37;;;;;;;9.03;6.80;;;6.10;99.90;;;;;;5117123;28;20575;-72
2022/04/12 04:58:05;;;;;;;8.67;6.80;;;6.10;99.90;;;;;;5117365;28;20909;-72
2022/04/12 05:00:34;;;;;;;14.40;7.10;;;6.10;99.90;;;;;;5117028;28;20471;-72
2022/04/12 05:03:02;;;;;;;16.23;6.77;;;6.10;99.90;;;;;;5117315;28;20513;-72
2022/04/12 05:05:29;;;;;;;11.30;8.00;;;6.10;99.90;;;;;;5117212;28;20475;-72
2022/04/12 05:07:58;;;;;;;32.93;14.17;;;6.10;99.90;;;;;;5116864;28;20467;-72
2022/04/12 05:10:28;;;;;;;12.77;9.40;;;6.20;99.90;;;;;;5117017;28;20455;-71
2022/04/12 05:12:55;;;;;;;11.43;6.67;;;6.20;99.90;;;;;;5116827;28;20514;-72
2022/04/12 05:15:42;;;;;;;8.73;6.03;;;6.30;99.90;;;;;;5117140;28;20456;-75
2022/04/12 05:18:09;;;;;;;8.30;6.10;;;6.30;99.90;;;;;;5117202;28;20452;-71
2022/04/12 05:20:36;;;;;;;10.13;6.60;;;6.30;99.90;;;;;;5116696;28;20967;-72
2022/04/12 05:23:04;;;;;;;14.20;6.77;;;6.30;99.90;;;;;;5116667;28;20755;-72
2022/04/12 05:25:33;;;;;;;8.73;6.43;;;6.30;99.90;;;;;;5116772;28;20790;-72
2022/04/12 05:28:00;;;;;;;9.50;7.10;;;6.40;99.90;;;;;;5116925;28;20456;-72
2022/04/12 05:30:27;;;;;;;7.90;6.23;;;6.40;99.90;;;;;;5116523;28;20452;-73
2022/04/12 05:32:54;;;;;;;8.27;7.10;;;6.50;99.90;;;;;;5116841;28;20525;-73
2022/04/12 05:35:20;;;;;;;11.33;7.10;;;6.50;99.90;;;;;;5116601;28;20533;-73
2022/04/12 05:37:48;;;;;;;13.33;8.43;;;6.50;99.90;;;;;;5116674;28;20528;-73
2022/04/12 05:40:18;;;;;;;14.20;7.83;;;6.60;99.90;;;;;;5116582;28;20567;-73
2022/04/12 05:42:45;;;;;;;8.50;6.63;;;6.70;99.90;;;;;;5116640;28;20456;-73
2022/04/12 05:45:13;;;;;;;9.70;6.90;;;6.70;99.90;;;;;;5116316;28;20468;-73
2022/04/12 05:47:43;;;;;;;11.13;6.97;;;6.80;99.90;;;;;;5116799;28;20460;-74
2022/04/12 05:50:11;;;;;;;18.03;7.37;;;6.90;99.90;;;;;;5116032;28;20453;-72
2022/04/12 05:52:39;;;;;;;12.30;8.67;;;6.90;99.90;;;;;;5116295;28;20455;-73
2022/04/12 05:55:07;;;;;;;9.20;7.20;;;7.00;99.90;;;;;;5116174;28;20476;-73
2022/04/12 05:57:38;;;;;;;9.63;7.20;;;7.10;99.90;;;;;;5116622;28;20495;-73
2022/04/12 06:00:07;;;;;;;7.17;6.10;;;7.10;99.90;;;;;;5116323;28;20537;-74
2022/04/12 06:02:34;;;;;;;12.07;7.10;;;7.20;99.90;;;;;;5116323;28;20457;-73
2022/04/12 06:05:01;;;;;;;8.60;6.47;;;7.30;99.90;;;;;;5115778;28;20457;-73
2022/04/12 06:07:32;;;;;;;8.90;6.97;;;7.30;99.90;;;;;;5115948;28;20513;-73
2022/04/12 06:10:00;;;;;;;8.27;5.97;;;7.40;99.90;;;;;;5115992;28;20784;-71
2022/04/12 06:12:26;;;;;;;9.43;6.87;;;7.50;99.90;;;;;;5115694;28;20841;-73
2022/04/12 06:14:54;;;;;;;9.40;6.57;;;7.60;99.90;;;;;;5115736;28;20452;-73
2022/04/12 06:17:21;;;;;;;5.83;5.23;;;7.70;99.90;;;;;;5114741;28;20774;-73
2022/04/12 06:19:48;;;;;;;10.73;6.47;;;7.70;99.90;;;;;;5115617;28;20521;-73
2022/04/12 06:22:15;;;;;;;7.57;6.40;;;7.80;99.90;;;;;;5115113;28;20940;-73
2022/04/12 06:24:42;;;;;;;9.40;6.20;;;7.80;99.90;;;;;;5115152;28;20464;-72
2022/04/12 06:27:09;;;;;;;9.03;6.67;;;7.90;99.90;;;;;;5115448;28;20456;-73
2022/04/12 06:29:36;;;;;;;11.50;6.30;;;8.00;99.90;;;;;;5115386;28;20769;-73
2022/04/12 06:32:04;;;;;;;13.10;5.43;;;8.10;99.90;;;;;;5115150;28;20452;-73
2022/04/12 06:34:31;;;;;;;8.40;5.53;;;8.10;99.90;;;;;;5115404;28;20460;-72
2022/04/12 06:36:58;;;;;;;10.17;5.20;;;8.20;99.90;;;;;;5114725;28;20939;-73
2022/04/12 06:39:25;;;;;;;6.93;6.07;;;8.20;99.90;;;;;;5115527;28;20460;-74
2022/04/12 06:41:52;;;;;;;10.00;5.47;;;8.30;99.90;;;;;;5115814;28;20631;-73
2022/04/12 06:44:19;;;;;;;11.10;6.20;;;8.30;99.90;;;;;;5115286;28;20770;-73
2022/04/12 06:46:45;;;;;;;9.20;5.30;;;8.40;99.90;;;;;;5115251;28;20521;-74
2022/04/12 06:49:13;;;;;;;6.23;5.30;;;8.50;99.90;;;;;;5115382;28;20488;-73
2022/04/12 06:51:40;;;;;;;6.30;5.03;;;8.50;99.90;;;;;;5115549;28;20534;-72
2022/04/12 06:54:07;;;;;;;10.13;6.03;;;8.60;99.90;;;;;;5114520;28;20456;-72
2022/04/12 06:56:33;;;;;;;7.90;5.00;;;8.70;99.90;;;;;;5116459;28;20984;-73
2022/04/12 06:59:00;;;;;;;8.63;5.40;;;8.80;99.90;;;;;;5117521;28;20916;-72
2022/04/12 07:01:27;;;;;;;6.67;4.90;;;8.90;99.90;;;;;;5117474;28;20862;-74
2022/04/12 07:03:53;;;;;;;11.73;5.70;;;9.00;99.90;;;;;;5122388;28;20460;-74
2022/04/12 07:06:21;;;;;;;6.37;5.50;;;9.00;99.90;;;;;;5121782;28;20467;-73
2022/04/12 07:08:48;;;;;;;9.23;5.97;;;9.00;99.90;;;;;;5121713;28;20459;-73
2022/04/12 07:11:15;;;;;;;7.30;5.87;;;9.10;99.90;;;;;;5121911;28;20829;-73
2022/04/12 07:13:41;;;;;;;6.93;6.20;;;9.20;99.90;;;;;;5121606;28;20913;-73
2022/04/12 07:16:08;;;;;;;15.60;11.83;;;9.30;99.90;;;;;;5122579;28;20456;-74
2022/04/12 07:18:35;;;;;;;9.47;6.00;;;9.40;99.90;;;;;;5122107;28;20456;-74
2022/04/12 07:21:01;;;;;;;7.40;5.57;;;9.50;99.90;;;;;;5121730;28;20476;-74
2022/04/12 07:23:29;;;;;;;6.50;5.23;;;9.60;99.90;;;;;;5121829;28;20460;-73
2022/04/12 07:25:56;;;;;;;8.60;5.30;;;9.70;99.90;;;;;;5121599;28;20456;-73
2022/04/12 07:28:23;;;;;;;9.83;6.07;;;9.70;99.90;;;;;;5121371;28;20883;-73
2022/04/12 07:30:49;;;;;;;8.73;4.83;;;9.80;99.90;;;;;;5121305;28;20447;-72
2022/04/12 07:33:16;;;;;;;10.30;5.30;;;10.00;99.90;;;;;;5121502;28;20842;-73
2022/04/12 07:35:42;;;;;;;6.53;4.80;;;10.10;99.90;;;;;;5121436;28;20553;-73
2022/04/12 07:38:10;;;;;;;8.57;5.20;;;10.10;99.90;;;;;;5122099;28;20540;-72
2022/04/12 07:40:38;;;;;;;10.17;4.87;;;10.20;99.90;;;;;;5121124;28;20562;-73
2022/04/12 07:43:04;;;;;;;8.50;5.33;;;10.30;99.90;;;;;;5121375;28;20459;-73
2022/04/12 07:45:31;;;;;;;6.93;5.23;;;10.40;99.90;;;;;;5121056;28;20456;-73
2022/04/12 07:47:59;;;;;;;5.80;4.57;;;10.50;99.90;;;;;;5120827;28;20460;-73
2022/04/12 07:50:26;;;;;;;9.30;5.53;;;10.60;99.90;;;;;;5120960;28;20909;-73
2022/04/12 07:52:53;;;;;;;7.10;4.90;;;10.60;99.90;;;;;;5121291;28;20624;-73
2022/04/12 07:55:20;;;;;;;6.27;4.77;;;10.80;99.90;;;;;;5120995;28;20483;-73
2022/04/12 07:57:48;;;;;;;5.23;4.63;;;11.00;99.90;;;;;;5121121;28;20460;-73
2022/04/12 08:00:15;;;;;;;6.00;4.80;;;11.10;99.90;;;;;;5121191;28;20452;-73
2022/04/12 08:02:42;;;;;;;9.83;4.83;;;11.20;99.90;;;;;;5120879;28;20537;-73
2022/04/12 08:05:09;;;;;;;11.70;4.60;;;11.40;99.90;;;;;;5121046;28;20456;-73
2022/04/12 08:07:39;;;;;;;8.10;4.50;;;11.50;99.90;;;;;;5121228;28;20470;-73
2022/04/12 08:10:07;;;;;;;5.83;3.40;;;11.60;99.90;;;;;;5121392;28;20444;-73
2022/04/12 08:12:34;;;;;;;8.57;4.50;;;11.60;99.90;;;;;;5120310;28;20466;-73
2022/04/12 08:15:02;;;;;;;5.30;4.80;;;11.70;99.90;;;;;;5117774;28;20452;-73
2022/04/12 08:17:29;;;;;;;5.30;4.10;;;11.90;99.90;;;;;;5118095;28;20460;-73
2022/04/12 08:19:55;;;;;;;6.53;4.43;;;12.00;99.90;;;;;;5117856;28;20939;-73
2022/04/12 08:22:22;;;;;;;7.53;4.70;;;12.10;99.90;;;;;;5118065;28;20480;-73
2022/04/12 08:24:49;;;;;;;4.40;4.00;;;12.20;98.90;;;;;;5117602;28;20460;-73
2022/04/12 08:27:16;;;;;;;4.07;3.67;;;12.40;98.70;;;;;;5118403;28;20452;-73
2022/04/12 08:29:44;;;;;;;10.63;7.20;;;12.60;97.60;;;;;;5119269;28;20448;-73
2022/04/12 08:32:12;;;;;;;5.70;4.30;;;12.70;96.80;;;;;;5117680;28;20464;-73
2022/04/12 08:34:39;;;;;;;5.50;3.87;;;12.90;95.40;;;;;;5117748;28;20452;-73
2022/04/12 08:37:06;;;;;;;5.83;4.13;;;13.10;94.20;;;;;;5117714;28;20808;-73
2022/04/12 08:39:32;;;;;;;11.30;4.17;;;13.30;92.70;;;;;;5117701;28;20841;-73
2022/04/12 08:42:00;;;;;;;5.33;4.27;;;13.40;91.30;;;;;;5118004;28;20476;-74
2022/04/12 08:44:27;;;;;;;5.47;4.13;;;13.50;90.60;;;;;;5117695;28;20463;-74
2022/04/12 08:46:56;;;;;;;8.17;4.07;;;13.60;88.30;;;;;;5117503;28;20452;-73
2022/04/12 08:49:28;;;;;;;8.53;3.90;;;13.80;86.30;;;;;;5117420;28;20456;-74
2022/04/12 08:51:55;;;;;;;5.27;4.30;;;13.90;85.30;;;;;;5116843;28;20769;-73
2022/04/12 08:54:22;;;;;;;4.63;4.23;;;14.10;80.90;;;;;;5116561;28;20461;-73
2022/04/12 08:56:51;;;;;;;4.70;3.80;;;14.20;76.90;;;;;;5116840;28;20880;-74
2022/04/12 08:59:19;;;;;;;4.00;3.60;;;14.20;75.50;;;;;;5117493;28;20460;-73
2022/04/12 09:01:46;;;;;;;9.80;4.13;;;14.40;75.30;;;;;;5116801;28;20472;-73
2022/04/12 09:04:14;;;;;;;4.47;3.97;;;14.50;72.50;;;;;;5116894;28;20510;-73
2022/04/12 09:06:50;;;;;;;6.40;4.13;;;14.60;69.30;;;;;;5117064;28;20453;-72
2022/04/12 09:09:18;;;;;;;7.27;4.13;;;14.60;64.00;;;;;;5116852;28;20440;-73
2022/04/12 09:11:55;;;;;;;4.67;3.97;;;14.60;63.60;;;;;;5116516;28;20954;-72
2022/04/12 09:14:21;;;;;;;7.17;4.70;;;14.60;63.40;;;;;;5116632;28;20444;-72
2022/04/12 09:16:48;;;;;;;5.20;4.70;;;14.70;63.10;;;;;;5116557;28;20521;-73
2022/04/12 09:19:15;;;;;;;7.10;4.80;;;14.70;61.10;;;;;;5116554;28;20468;-73
2022/04/12 09:21:46;;;;;;;8.23;4.73;;;14.70;58.80;;;;;;5116268;28;20480;-72
2022/04/12 09:24:21;;;;;;;7.20;4.90;;;14.60;57.90;;;;;;5115893;28;20520;-72
2022/04/12 09:26:56;;;;;;;6.20;4.30;;;14.60;58.10;;;;;;5115922;28;20780;-72
2022/04/12 09:29:27;;;;;;;7.40;4.80;;;14.60;57.40;;;;;;5115942;28;20440;-72
2022/04/12 09:31:56;;;;;;;5.73;4.90;;;14.60;55.70;;;;;;5116330;28;20441;-73
2022/04/12 09:34:23;;;;;;;5.43;4.63;;;14.70;56.30;;;;;;5116868;28;20452;-73
2022/04/12 09:36:50;;;;;;;4.93;4.30;;;14.70;56.70;;;;;;5116241;28;20534;-73
2022/04/12 09:39:19;;;;;;;5.97;5.20;;;14.90;57.10;;;;;;5117570;28;20822;-73
2022/04/12 09:41:48;;;;;;;4.33;3.93;;;15.00;56.80;;;;;;5118315;28;20473;-72
2022/04/12 09:44:18;;;;;;;4.57;4.10;;;15.10;56.50;;;;;;5119857;28;20464;-74
2022/04/12 09:46:45;;;;;;;5.20;4.33;;;15.10;56.80;;;;;;5117724;28;20456;-73
2022/04/12 09:49:12;;;;;;;8.53;5.27;;;15.10;56.60;;;;;;5116294;28;20456;-73
2022/04/12 09:51:39;;;;;;;5.83;4.20;;;15.10;56.30;;;;;;5115857;28;20448;-73
2022/04/12 09:54:07;;;;;;;6.40;4.40;;;15.20;56.70;;;;;;5116036;28;20496;-73
2022/04/12 09:56:35;;;;;;;5.63;4.70;;;15.40;57.10;;;;;;5115580;28;20928;-73
2022/04/12 09:59:07;;;;;;;7.00;4.37;;;15.50;56.50;;;;;;5115154;28;20457;-73
2022/04/12 10:01:39;;;;;;;5.40;4.70;;;15.70;54.50;;;;;;5115343;28;20465;-73
2022/04/12 10:04:09;;;;;;;6.20;4.77;;;15.60;54.90;;;;;;5115384;28;20540;-74
2022/04/12 10:06:40;;;;;;;8.70;4.67;;;15.70;54.10;;;;;;5114819;28;20774;-72
2022/04/12 10:09:11;;;;;;;5.33;4.43;;;15.80;53.10;;;;;;5114937;28;20448;-72
2022/04/12 10:11:39;;;;;;;5.67;4.80;;;15.80;52.90;;;;;;5115291;28;20429;-73
2022/04/12 10:14:08;;;;;;;6.80;4.30;;;16.00;52.50;;;;;;5114259;28;20479;-73
2022/04/12 10:16:35;;;;;;;7.43;5.60;;;16.00;51.70;;;;;;5114839;28;20464;-73
2022/04/12 10:19:02;;;;;;;6.07;4.90;;;16.20;51.70;;;;;;5115108;28;20467;-73
2022/04/12 10:21:30;;;;;;;7.43;4.70;;;16.30;51.60;;;;;;5114910;28;20483;-73
2022/04/12 10:23:59;;;;;;;6.73;4.77;;;16.40;50.40;;;;;;5114701;28;20453;-73
2022/04/12 10:26:27;;;;;;;5.27;4.53;;;16.50;50.10;;;;;;5114779;28;20884;-73
2022/04/12 10:28:57;;;;;;;5.97;4.70;;;16.60;49.60;;;;;;5116599;28;20460;-73
2022/04/12 10:31:30;;;;;;;8.53;5.40;;;16.80;48.80;;;;;;5118035;28;20452;-74
2022/04/12 10:34:09;;;;;;;6.63;5.03;;;17.00;48.10;;;;;;5117081;28;20449;-73
2022/04/12 10:36:59;;;;;;;10.27;9.00;;;17.00;48.30;;;;;;5114235;28;20463;-73
2022/04/12 10:39:31;;;;;;;8.77;7.87;;;17.10;46.90;;;;;;5114752;28;20448;-72
2022/04/12 10:42:02;;;;;;;6.20;5.07;;;17.20;46.20;;;;;;5114915;28;20467;-73
2022/04/12 10:44:36;;;;;;;6.00;5.40;;;17.30;46.30;;;;;;5115225;28;20444;-72
2022/04/12 10:47:04;;;;;;;5.60;4.50;;;17.30;45.20;;;;;;5114574;28;20441;-73
2022/04/12 10:49:36;;;;;;;5.27;4.10;;;17.30;46.10;;;;;;5114933;28;20453;-72
2022/04/12 10:52:09;;;;;;;7.07;4.93;;;17.40;45.60;;;;;;5117069;28;20523;-73
2022/04/12 10:54:36;;;;;;;5.40;4.87;;;17.50;45.10;;;;;;5118069;28;20765;-73
2022/04/12 10:57:22;;;;;;;5.50;4.63;;;17.50;45.60;;;;;;5120225;28;20445;-73
2022/04/12 10:59:52;;;;;;;7.03;5.30;;;17.70;44.30;;;;;;5120557;28;20440;-72
2022/04/12 11:02:21;;;;;;;6.67;4.83;;;17.90;44.60;;;;;;5117753;28;20476;-74
2022/04/12 11:04:48;;;;;;;5.13;4.20;;;18.10;43.30;;;;;;5114350;28;20593;-72
2022/04/12 11:07:29;;;;;;;5.70;4.83;;;18.20;42.60;;;;;;5116760;28;20470;-74
2022/04/12 11:10:29;;;;;;;5.60;4.70;;;18.20;42.00;;;;;;5115563;28;20888;-72
2022/04/12 11:13:07;;;;;;;5.20;4.70;;;18.10;41.40;;;;;;5114765;28;20436;-73
2022/04/12 11:15:35;;;;;;;5.80;4.80;;;17.90;41.20;;;;;;5114698;28;20452;-73
2022/04/12 11:18:14;;;;;;;6.77;5.50;;;18.00;41.50;;;;;;5114333;28;20456;-73
2022/04/12 11:20:43;;;;;;;7.83;5.27;;;17.70;41.30;;;;;;5114439;28;20452;-73
2022/04/12 11:23:12;;;;;;;6.90;4.63;;;17.80;42.60;;;;;;5114590;28;20484;-73
2022/04/12 11:25:47;;;;;;;7.00;6.30;;;18.00;42.30;;;;;;5114815;28;20456;-72
2022/04/12 11:28:15;;;;;;;5.53;4.87;;;18.20;41.90;;;;;;5114643;28;20793;-73
2022/04/12 11:30:52;;;;;;;8.13;5.37;;;18.50;42.10;;;;;;5113967;28;20456;-73
2022/04/12 11:33:23;;;;;;;7.97;5.70;;;18.80;41.80;;;;;;5114107;28;20864;-74
2022/04/12 11:35:53;;;;;;;6.17;5.27;;;19.20;42.00;;;;;;5114310;28;20460;-73
2022/04/12 11:38:21;;;;;;;6.90;5.60;;;19.60;41.10;;;;;;5114136;28;20830;-73
2022/04/12 11:40:48;;;;;;;6.50;5.40;;;20.00;41.10;;;;;;5114105;28;20456;-74
2022/04/12 11:43:25;;;;;;;7.17;5.63;;;20.30;40.90;;;;;;5114153;28;20956;-74
2022/04/12 11:45:54;;;;;;;7.30;5.50;;;20.70;39.50;;;;;;5114538;28;20501;-74
2022/04/12 11:48:22;;;;;;;6.57;5.90;;;20.80;38.80;;;;;;5115364;28;20457;-74
2022/04/12 11:50:52;;;;;;;6.50;5.20;;;21.10;38.10;;;;;;5118212;28;20455;-73
2022/04/12 11:53:20;;;;;;;11.40;10.23;;;21.10;36.10;;;;;;5118521;28;20448;-73
2022/04/12 11:55:47;;;;;;;5.10;4.70;;;21.20;36.90;;;;;;5117698;28;20472;-74
2022/04/12 11:58:14;;;;;;;4.53;4.13;;;21.40;35.30;;;;;;5118081;28;20456;-75
2022/04/12 12:00:41;;;;;;;5.33;4.40;;;21.80;35.20;;;;;;5117653;28;20464;-74
2022/04/12 12:03:16;;;;;;;5.10;4.57;;;22.10;33.80;;;;;;5117699;28;20576;-76
2022/04/12 12:05:45;;;;;;;5.53;4.00;;;22.20;32.80;;;;;;5118752;28;20468;-75
2022/04/12 12:08:12;;;;;;;4.37;4.03;;;22.20;32.40;;;;;;5118041;28;20460;-74
2022/04/12 12:10:41;;;;;;;8.67;4.33;;;22.30;32.30;;;;;;5117694;28;20457;-75
2022/04/12 12:13:08;;;;;;;7.07;5.43;;;22.50;31.20;;;;;;5118077;28;20452;-74
2022/04/12 12:15:36;;;;;;;5.37;4.70;;;22.20;31.10;;;;;;5117742;28;20532;-75
2022/04/12 12:18:05;;;;;;;6.20;4.70;;;22.60;31.40;;;;;;5117452;28;20452;-76
2022/04/12 12:20:34;;;;;;;5.33;4.83;;;22.70;29.60;;;;;;5117815;28;20467;-75
2022/04/12 12:23:04;;;;;;;5.60;5.00;;;22.40;29.80;;;;;;5117389;28;20862;-74
2022/04/12 12:25:42;;;;;;;4.83;4.30;;;22.90;29.80;;;;;;5116865;28;20535;-74
2022/04/12 12:28:14;;;;;;;9.17;6.20;;;23.30;28.90;;;;;;5117607;28;20455;-75
2022/04/12 12:30:42;;;;;;;7.10;4.50;;;23.60;28.20;;;;;;5117830;28;20452;-74
2022/04/12 12:33:09;;;;;;;4.50;4.10;;;23.60;26.60;;;;;;5117553;28;20458;-74
2022/04/12 12:35:39;;;;;;;5.13;4.20;;;23.90;26.30;;;;;;5117483;28;20849;-75
2022/04/12 12:38:11;;;;;;;4.27;3.87;;;24.00;26.60;;;;;;5117229;28;20564;-74
2022/04/12 12:40:38;;;;;;;9.13;7.23;;;24.10;26.90;;;;;;5116934;28;20429;-75
2022/04/12 12:43:07;;;;;;;5.13;4.63;;;24.40;27.10;;;;;;5117428;28;20500;-74
2022/04/12 12:45:42;;;;;;;5.93;5.00;;;24.30;26.40;;;;;;5117243;28;20531;-74
2022/04/12 12:48:10;;;;;;;6.30;4.67;;;24.30;26.60;;;;;;5117150;28;20924;-73
2022/04/12 12:50:38;;;;;;;8.80;5.43;;;24.10;25.90;;;;;;5118723;28;20752;-75
2022/04/12 12:53:08;;;;;;;9.80;5.13;;;24.10;26.10;;;;;;5118057;28;20478;-74
2022/04/12 12:55:39;;;;;;;5.70;4.53;;;24.20;25.70;;;;;;5116947;28;20484;-74
2022/04/12 12:58:07;;;;;;;4.37;4.00;;;24.80;24.80;;;;;;5117337;28;20450;-74